Lambertville, New Jersey
Current Conditions -  °F | °C
As of 4:05 AM on Monday 24 Nov 2014 (Local Time) from KTTN Reporting Station
Light Rain Light Rain  
Wind Chill: 17°   Ceiling: 1000
Heat Index: 17°   Visibility: 7mi
Dew Point: 15°   Wind: 23mph
Humidity: 90%   Direction: 180°S
Pressure: 29.7"   Gusts: 33mph
Location:  40.37°N, 74.94°W
Report Text: KTTN 240905Z AUTO 18020G29KT 7SM -RA OVC010 17/15 A2970 RMK AO2 PK WND 19029/0901 CIG 007V013 P0001 T01670150
Loading
Personal Weather Stations






























Interactive Weather Map New forecast layout! Learn more

10-Day Weather Forecast

Advertisements
Track Severe Weather on mobile